createdAt,value
2023-08-08T00:01:32.187Z,12.70
2023-08-08T00:03:35.863Z,12.70
2023-08-08T00:05:38.807Z,12.70
2023-08-08T00:07:41.633Z,12.80
2023-08-08T00:09:45.841Z,12.80
2023-08-08T00:11:49.433Z,12.80
2023-08-08T00:13:52.291Z,12.80
2023-08-08T00:15:55.236Z,12.70
2023-08-08T00:17:58.147Z,12.80
2023-08-08T00:20:01.079Z,12.80
2023-08-08T00:22:03.117Z,12.80
2023-08-08T00:24:06.471Z,12.80
2023-08-08T00:26:10.651Z,12.80
2023-08-08T00:28:13.496Z,12.70
2023-08-08T00:30:16.350Z,12.70
2023-08-08T00:32:19.231Z,12.70
2023-08-08T00:34:22.117Z,12.70
2023-08-08T00:36:25.000Z,12.70
2023-08-08T00:38:27.988Z,12.70
2023-08-08T00:40:30.953Z,12.60
2023-08-08T00:42:35.259Z,12.60
2023-08-08T00:44:38.710Z,12.60
2023-08-08T00:46:41.640Z,12.60
2023-08-08T00:48:44.666Z,12.60
2023-08-08T00:50:47.544Z,12.60
2023-08-08T00:52:50.452Z,12.60
2023-08-08T00:54:53.538Z,12.60
2023-08-08T00:56:56.439Z,12.60
2023-08-08T00:59:00.660Z,12.60
2023-08-08T01:01:04.489Z,12.60
2023-08-08T01:03:07.840Z,12.60
2023-08-08T01:05:10.863Z,12.60
2023-08-08T01:07:18.454Z,12.60
2023-08-08T01:09:23.435Z,12.50
2023-08-08T01:11:26.694Z,12.50
2023-08-08T01:13:29.561Z,12.50
2023-08-08T01:15:36.641Z,12.50
2023-08-08T01:17:39.708Z,12.50
2023-08-08T01:19:42.043Z,12.60
2023-08-08T01:21:44.944Z,12.50
2023-08-08T01:23:51.100Z,12.50
2023-08-08T01:25:55.361Z,12.60
2023-08-08T01:27:57.269Z,12.50
2023-08-08T01:30:00.232Z,12.60
2023-08-08T01:32:03.198Z,12.50
2023-08-08T01:34:05.132Z,12.60
2023-08-08T01:36:14.727Z,12.60
2023-08-08T01:38:21.594Z,12.50
2023-08-08T01:40:24.494Z,12.50
2023-08-08T01:42:27.798Z,12.50
2023-08-08T01:44:30.939Z,12.50
2023-08-08T01:46:33.082Z,12.50
2023-08-08T01:48:36.007Z,12.50
2023-08-08T01:50:39.004Z,12.60
2023-08-08T01:52:41.925Z,12.60
2023-08-08T01:54:43.973Z,12.60
2023-08-08T01:56:46.841Z,12.60
2023-08-08T01:58:50.106Z,12.60
2023-08-08T02:00:53.029Z,12.70
2023-08-08T02:02:55.986Z,12.70
2023-08-08T02:04:58.983Z,12.70
2023-08-08T02:07:01.871Z,12.70
2023-08-08T02:09:05.010Z,12.70
2023-08-08T02:11:07.894Z,12.70
2023-08-08T02:13:10.763Z,12.80
2023-08-08T02:15:15.001Z,12.80
2023-08-08T02:17:17.935Z,12.80
2023-08-08T02:19:20.834Z,12.80
2023-08-08T02:21:23.731Z,12.80
2023-08-08T02:23:27.473Z,12.90
2023-08-08T02:25:31.826Z,12.90
2023-08-08T02:27:34.747Z,12.90
2023-08-08T02:29:37.658Z,13.00
2023-08-08T02:31:42.022Z,13.00
2023-08-08T02:33:44.976Z,13.00
2023-08-08T02:35:47.887Z,13.00
2023-08-08T02:37:50.759Z,13.00
2023-08-08T02:39:53.666Z,13.00
2023-08-08T02:41:56.870Z,13.10
2023-08-08T02:44:00.217Z,13.10
2023-08-08T02:46:03.198Z,13.10
2023-08-08T02:48:08.100Z,13.10
2023-08-08T02:50:11.609Z,13.10
2023-08-08T02:52:14.511Z,13.20
2023-08-08T02:54:17.434Z,13.20
2023-08-08T02:56:20.401Z,13.20
2023-08-08T02:58:23.300Z,13.20
2023-08-08T03:00:26.298Z,13.20
2023-08-08T03:02:29.298Z,13.20
2023-08-08T03:04:33.558Z,13.20
2023-08-08T03:06:36.454Z,13.30
2023-08-08T03:08:39.354Z,13.30
2023-08-08T03:10:42.496Z,13.30
2023-08-08T03:12:45.407Z,13.30
2023-08-08T03:14:48.868Z,13.30
2023-08-08T03:16:51.818Z,13.40
2023-08-08T03:18:54.744Z,13.40
2023-08-08T03:20:59.031Z,13.40
2023-08-08T03:23:02.005Z,13.40
2023-08-08T03:25:05.381Z,13.40
2023-08-08T03:27:08.553Z,13.40
2023-08-08T03:29:11.892Z,13.40
2023-08-08T03:31:14.809Z,13.40
2023-08-08T03:33:17.727Z,13.40
2023-08-08T03:35:20.741Z,13.40
2023-08-08T03:37:25.076Z,13.40
2023-08-08T03:39:28.109Z,13.40
2023-08-08T03:41:30.208Z,13.30
2023-08-08T03:43:33.393Z,13.30
2023-08-08T03:45:36.310Z,13.30
2023-08-08T03:47:39.361Z,13.30
2023-08-08T03:49:42.363Z,13.30
2023-08-08T03:51:45.239Z,13.30
2023-08-08T03:53:49.486Z,13.30
2023-08-08T03:55:52.388Z,13.30
2023-08-08T03:57:55.297Z,13.30
2023-08-08T03:59:58.227Z,13.30
2023-08-08T04:02:01.416Z,13.30
2023-08-08T04:04:05.075Z,13.30
2023-08-08T04:06:07.981Z,13.30
2023-08-08T04:08:09.920Z,13.30
2023-08-08T04:10:14.397Z,13.30
2023-08-08T04:12:17.400Z,13.40
2023-08-08T04:14:20.290Z,13.40
2023-08-08T04:16:25.863Z,13.40
2023-08-08T04:18:29.843Z,13.40
2023-08-08T04:20:32.930Z,13.40
2023-08-08T04:22:36.802Z,13.40
2023-08-08T04:24:40.213Z,13.40
2023-08-08T04:26:43.480Z,13.40
2023-08-08T04:28:46.364Z,13.40
2023-08-08T04:30:48.380Z,13.50
2023-08-08T04:32:51.316Z,13.50
2023-08-08T04:34:54.242Z,13.50
2023-08-08T04:36:57.133Z,13.50
2023-08-08T04:39:00.010Z,13.50
2023-08-08T04:41:02.919Z,13.50
2023-08-08T04:43:07.239Z,13.60
2023-08-08T04:45:09.932Z,13.60
2023-08-08T04:47:12.818Z,13.60
2023-08-08T04:49:15.716Z,13.60
2023-08-08T04:51:18.645Z,13.60
2023-08-08T04:53:21.529Z,13.60
2023-08-08T04:55:24.437Z,13.60
2023-08-08T04:57:27.326Z,13.60
2023-08-08T04:59:31.601Z,13.60
2023-08-08T05:01:34.506Z,13.70
2023-08-08T05:03:37.753Z,13.70
2023-08-08T05:05:40.763Z,13.70
2023-08-08T05:07:43.674Z,13.70
2023-08-08T05:09:45.766Z,13.80
2023-08-08T05:11:48.689Z,13.80
2023-08-08T05:13:51.641Z,13.80
2023-08-08T05:15:55.961Z,13.80
2023-08-08T05:18:00.593Z,13.80
2023-08-08T05:20:02.600Z,13.80
2023-08-08T05:22:06.209Z,13.90
2023-08-08T05:24:09.117Z,13.90
2023-08-08T05:26:12.023Z,14.00
2023-08-08T05:28:14.937Z,14.00
2023-08-08T05:30:17.882Z,14.00
2023-08-08T05:32:22.161Z,14.10
2023-08-08T05:34:25.870Z,14.10
2023-08-08T05:36:28.800Z,14.10
2023-08-08T05:38:31.832Z,14.20
2023-08-08T05:40:36.532Z,14.30
2023-08-08T05:42:39.727Z,14.30
2023-08-08T05:44:43.488Z,14.30
2023-08-08T05:46:46.427Z,14.30
2023-08-08T05:48:50.739Z,14.40
2023-08-08T05:50:53.684Z,14.40
2023-08-08T05:52:57.199Z,14.40
2023-08-08T05:55:01.139Z,14.50
2023-08-08T05:57:04.458Z,14.50
2023-08-08T05:59:07.488Z,14.60
2023-08-08T06:01:10.826Z,14.60
2023-08-08T06:03:13.856Z,14.60
2023-08-08T06:05:18.568Z,14.60
2023-08-08T06:07:21.643Z,14.70
2023-08-08T06:09:24.567Z,14.60
2023-08-08T06:11:27.473Z,14.70
2023-08-08T06:13:30.384Z,14.70
2023-08-08T06:15:33.409Z,14.90
2023-08-08T06:17:36.314Z,15.00
2023-08-08T06:19:39.281Z,15.20
2023-08-08T06:21:43.536Z,15.30
2023-08-08T06:23:47.540Z,15.50
2023-08-08T06:25:50.432Z,15.30
2023-08-08T06:27:53.435Z,15.40
2023-08-08T06:29:56.963Z,15.50
2023-08-08T06:32:00.144Z,15.40
2023-08-08T06:34:03.585Z,15.40
2023-08-08T06:36:07.358Z,15.40
2023-08-08T06:38:11.623Z,15.40
2023-08-08T06:40:15.356Z,15.40
2023-08-08T06:42:18.266Z,15.80
2023-08-08T06:44:21.438Z,16.00
2023-08-08T06:46:26.154Z,16.20
2023-08-08T06:48:29.193Z,16.50
2023-08-08T06:50:32.102Z,16.40
2023-08-08T06:52:35.023Z,16.40
2023-08-08T06:54:39.315Z,16.70
2023-08-08T06:56:41.266Z,16.80
2023-08-08T06:58:44.269Z,16.70
2023-08-08T07:00:46.288Z,16.80
2023-08-08T07:02:49.299Z,16.70
2023-08-08T07:04:52.605Z,16.70
2023-08-08T07:06:55.514Z,16.70
2023-08-08T07:08:58.498Z,17.20
2023-08-08T07:11:02.790Z,17.20
2023-08-08T07:13:06.074Z,17.20
2023-08-08T07:15:10.069Z,17.20
2023-08-08T07:17:12.994Z,17.10
2023-08-08T07:19:16.532Z,17.10
2023-08-08T07:21:18.440Z,17.00
2023-08-08T07:23:21.414Z,17.20
2023-08-08T07:25:24.364Z,17.40
2023-08-08T07:27:28.972Z,17.70
2023-08-08T07:29:31.940Z,17.50
2023-08-08T07:31:34.947Z,17.80
2023-08-08T07:33:38.138Z,18.00
2023-08-08T07:35:41.097Z,18.10
2023-08-08T07:37:44.291Z,18.00
2023-08-08T07:39:47.187Z,17.80
2023-08-08T07:41:50.121Z,18.20
2023-08-08T07:43:54.385Z,18.30
2023-08-08T07:45:57.273Z,18.30
2023-08-08T07:48:00.243Z,17.70
2023-08-08T07:50:03.573Z,17.90
2023-08-08T07:52:08.112Z,17.60
2023-08-08T07:54:11.855Z,17.60
2023-08-08T07:56:14.775Z,18.00
2023-08-08T07:58:17.700Z,17.90
2023-08-08T08:00:22.933Z,18.10
2023-08-08T08:02:25.976Z,18.10
2023-08-08T08:04:29.096Z,18.20
2023-08-08T08:06:32.014Z,18.00
2023-08-08T08:08:34.963Z,17.90
2023-08-08T08:10:37.886Z,18.40
2023-08-08T08:12:40.821Z,18.80
2023-08-08T08:14:43.730Z,19.10
2023-08-08T08:16:48.347Z,18.90
2023-08-08T08:18:51.542Z,18.80
2023-08-08T08:20:54.481Z,18.40
2023-08-08T08:22:57.386Z,18.80
2023-08-08T08:25:00.311Z,18.40
2023-08-08T08:27:03.216Z,19.00
2023-08-08T08:29:06.349Z,19.30
2023-08-08T08:31:10.081Z,19.50
2023-08-08T08:33:14.474Z,20.10
2023-08-08T08:35:17.802Z,19.60
2023-08-08T08:37:20.760Z,18.90
2023-08-08T08:39:24.156Z,18.50
2023-08-08T08:41:28.876Z,18.20
2023-08-08T08:43:32.598Z,18.00
2023-08-08T08:45:35.789Z,17.80
2023-08-08T08:47:37.788Z,18.30
2023-08-08T08:49:42.129Z,18.80
2023-08-08T08:51:45.034Z,18.40
2023-08-08T08:53:48.362Z,18.20
2023-08-08T08:55:51.256Z,18.10
2023-08-08T08:57:54.178Z,18.40
2023-08-08T08:59:57.321Z,19.00
2023-08-08T09:02:01.291Z,19.10
2023-08-08T09:04:05.160Z,18.60
2023-08-08T09:06:09.451Z,18.50
2023-08-08T09:08:13.136Z,18.40
2023-08-08T09:10:15.512Z,18.30
2023-08-08T09:12:19.787Z,18.10
2023-08-08T09:14:24.356Z,17.90
2023-08-08T09:16:27.327Z,17.50
2023-08-08T09:18:30.341Z,17.50
2023-08-08T09:20:33.511Z,17.40
2023-08-08T09:22:36.770Z,17.40
2023-08-08T09:24:40.694Z,17.50
2023-08-08T09:26:43.661Z,17.60
2023-08-08T09:28:46.601Z,17.70
2023-08-08T09:30:49.548Z,17.80
2023-08-08T09:32:52.612Z,17.90
2023-08-08T09:34:55.566Z,18.00
2023-08-08T09:36:58.468Z,17.90
2023-08-08T09:39:02.918Z,17.80
2023-08-08T09:41:05.833Z,17.70
2023-08-08T09:43:09.369Z,17.70
2023-08-08T09:45:12.730Z,17.70
2023-08-08T09:47:15.612Z,17.90
2023-08-08T09:49:18.527Z,17.80
2023-08-08T09:51:22.018Z,17.90
2023-08-08T09:53:24.988Z,17.80
2023-08-08T09:55:29.234Z,18.00
2023-08-08T09:57:32.147Z,18.20
2023-08-08T09:59:35.085Z,19.30
2023-08-08T10:01:39.920Z,20.00
2023-08-08T10:03:44.381Z,20.80
2023-08-08T10:05:47.576Z,21.30
2023-08-08T10:07:50.527Z,21.70
2023-08-08T10:09:53.437Z,21.40
2023-08-08T10:11:58.549Z,22.10
2023-08-08T10:14:03.704Z,21.80
2023-08-08T10:16:05.879Z,22.00
2023-08-08T10:18:08.849Z,21.20
2023-08-08T10:20:13.207Z,20.80
2023-08-08T10:22:16.245Z,20.50
2023-08-08T10:24:22.226Z,20.00
2023-08-08T10:26:25.147Z,20.30
2023-08-08T10:28:29.384Z,20.20
2023-08-08T10:30:32.445Z,19.80
2023-08-08T10:32:42.192Z,19.80
2023-08-08T10:34:46.051Z,20.30
2023-08-08T10:36:52.585Z,20.70
2023-08-08T10:38:56.056Z,21.10
2023-08-08T10:40:59.984Z,21.60
2023-08-08T10:43:03.251Z,22.20
2023-08-08T10:45:11.000Z,22.40
2023-08-08T10:47:13.892Z,22.40
2023-08-08T10:49:18.067Z,22.60
2023-08-08T10:51:21.472Z,23.00
2023-08-08T10:53:25.124Z,22.70
2023-08-08T10:55:28.989Z,22.10
2023-08-08T10:57:32.016Z,21.50
2023-08-08T10:59:39.043Z,21.30
2023-08-08T11:01:44.343Z,20.70
2023-08-08T11:03:47.366Z,20.70
2023-08-08T11:05:53.332Z,20.50
2023-08-08T11:07:56.661Z,21.00
2023-08-08T11:09:59.658Z,21.80
2023-08-08T11:12:02.893Z,22.40
2023-08-08T11:14:13.713Z,22.90
2023-08-08T11:16:16.996Z,22.50
2023-08-08T11:18:21.468Z,22.20
2023-08-08T11:20:24.584Z,21.60
2023-08-08T11:22:27.696Z,21.20
2023-08-08T11:24:36.804Z,20.80
2023-08-08T11:26:40.194Z,21.10
2023-08-08T11:28:51.449Z,21.10
2023-08-08T11:30:54.403Z,20.80
2023-08-08T11:35:04.810Z,20.00
2023-08-08T11:37:07.789Z,19.60
2023-08-08T11:39:11.034Z,19.30
2023-08-08T11:41:14.061Z,18.90
2023-08-08T11:43:17.223Z,19.00
2023-08-08T11:45:19.455Z,19.30
2023-08-08T11:47:26.896Z,19.70
2023-08-08T11:49:29.844Z,20.00
2023-08-08T11:51:34.369Z,19.90
2023-08-08T11:53:37.676Z,19.80
2023-08-08T11:55:42.324Z,19.60
2023-08-08T11:57:46.097Z,19.50
2023-08-08T11:59:50.535Z,19.60
2023-08-08T12:01:52.564Z,19.70
2023-08-08T12:03:55.835Z,20.00
2023-08-08T12:05:58.813Z,20.00
2023-08-08T12:08:03.077Z,20.30
2023-08-08T12:10:06.823Z,21.00
2023-08-08T12:12:11.139Z,21.20
2023-08-08T12:14:14.963Z,21.20
2023-08-08T12:16:18.444Z,21.60
2023-08-08T12:18:21.665Z,21.20
2023-08-08T12:20:24.561Z,20.70
2023-08-08T12:22:27.468Z,20.40
2023-08-08T12:24:31.797Z,20.30
2023-08-08T12:26:34.713Z,20.00
2023-08-08T12:28:37.639Z,19.80
2023-08-08T12:30:40.541Z,20.10
2023-08-08T12:32:43.479Z,21.00
2023-08-08T12:34:46.372Z,20.80
2023-08-08T12:36:49.282Z,20.80
2023-08-08T12:38:52.380Z,21.60
2023-08-08T12:40:57.047Z,21.40
2023-08-08T12:42:59.931Z,21.30
2023-08-08T12:45:02.836Z,20.80
2023-08-08T12:47:06.088Z,20.30
2023-08-08T12:49:09.379Z,19.90
2023-08-08T12:51:12.319Z,19.50
2023-08-08T12:53:15.197Z,18.80
2023-08-08T12:55:19.022Z,17.90
2023-08-08T12:57:23.239Z,17.40
2023-08-08T12:59:26.172Z,17.10
2023-08-08T13:01:29.076Z,16.90
2023-08-08T13:03:35.037Z,16.80
2023-08-08T13:05:38.014Z,16.80
2023-08-08T13:07:40.892Z,17.00
2023-08-08T13:09:43.799Z,17.30
2023-08-08T13:11:46.688Z,17.30
2023-08-08T13:13:50.958Z,17.40
2023-08-08T13:15:53.877Z,17.40
2023-08-08T13:17:56.821Z,17.50
2023-08-08T13:19:59.684Z,17.90
2023-08-08T13:22:02.881Z,18.20
2023-08-08T13:24:07.435Z,19.20
2023-08-08T13:26:10.343Z,19.30
2023-08-08T13:28:15.352Z,19.80
2023-08-08T13:30:20.984Z,20.40
2023-08-08T13:32:24.033Z,20.80
2023-08-08T13:34:27.013Z,21.10
2023-08-08T13:36:29.946Z,21.30
2023-08-08T13:38:32.865Z,21.00
2023-08-08T13:40:35.773Z,20.40
2023-08-08T13:42:38.761Z,20.00
2023-08-08T13:44:41.665Z,19.70
2023-08-08T13:46:45.963Z,19.30
2023-08-08T13:48:47.894Z,18.90
2023-08-08T13:50:51.852Z,18.50
2023-08-08T13:52:54.767Z,18.00
2023-08-08T13:54:58.375Z,17.80
2023-08-08T13:57:01.268Z,17.70
2023-08-08T13:59:04.294Z,17.80
2023-08-08T14:01:07.756Z,18.40
2023-08-08T14:03:13.349Z,18.80
2023-08-08T14:05:17.299Z,19.30
2023-08-08T14:07:22.280Z,19.60
2023-08-08T14:09:25.392Z,19.60
2023-08-08T14:11:28.375Z,19.60
2023-08-08T14:13:31.583Z,19.50
2023-08-08T14:15:35.403Z,19.70
2023-08-08T14:17:38.378Z,20.10
2023-08-08T14:19:42.682Z,20.30
2023-08-08T14:21:45.930Z,20.40
2023-08-08T14:23:49.168Z,19.90
2023-08-08T14:25:52.255Z,20.00
2023-08-08T14:27:55.173Z,19.60
2023-08-08T14:29:58.111Z,19.30
2023-08-08T14:32:01.574Z,19.00
2023-08-08T14:34:05.287Z,18.80
2023-08-08T14:36:09.542Z,18.50
2023-08-08T14:38:12.444Z,18.00
2023-08-08T14:40:14.338Z,17.60
2023-08-08T14:42:17.366Z,17.40
2023-08-08T14:44:20.266Z,17.20
2023-08-08T14:46:23.170Z,17.00
2023-08-08T14:48:26.067Z,17.00
2023-08-08T14:50:29.636Z,16.90
2023-08-08T14:52:33.915Z,17.00
2023-08-08T14:54:36.970Z,17.00
2023-08-08T14:56:39.903Z,17.00
2023-08-08T14:58:42.804Z,17.00
2023-08-08T15:00:44.740Z,17.10
2023-08-08T15:02:47.680Z,17.10
2023-08-08T15:04:50.688Z,17.20
2023-08-08T15:06:53.733Z,17.20
2023-08-08T15:08:57.980Z,17.30
2023-08-08T15:11:01.102Z,17.20
2023-08-08T15:13:04.040Z,17.20
2023-08-08T15:15:08.719Z,17.30
2023-08-08T15:17:11.617Z,17.50
2023-08-08T15:19:14.527Z,17.60
2023-08-08T15:21:20.483Z,17.70
2023-08-08T15:23:23.985Z,17.70
2023-08-08T15:25:29.392Z,17.70
2023-08-08T15:27:32.373Z,17.70
2023-08-08T15:29:35.276Z,17.60
2023-08-08T15:31:38.195Z,17.60
2023-08-08T15:33:41.115Z,18.10
2023-08-08T15:35:44.064Z,18.00
2023-08-08T15:37:46.985Z,17.80
2023-08-08T15:39:49.860Z,17.80
2023-08-08T15:41:54.156Z,17.70
2023-08-08T15:43:57.083Z,17.90
2023-08-08T15:46:00.564Z,18.00
2023-08-08T15:48:03.990Z,17.90
2023-08-08T15:50:08.310Z,18.10
2023-08-08T15:52:11.258Z,18.30
2023-08-08T15:54:14.186Z,18.30
2023-08-08T15:56:17.112Z,18.20
2023-08-08T15:58:21.726Z,18.30
2023-08-08T16:00:24.729Z,18.30
2023-08-08T16:02:27.699Z,18.30
2023-08-08T16:04:30.681Z,18.30
2023-08-08T16:06:32.606Z,18.40
2023-08-08T16:08:35.535Z,18.40
2023-08-08T16:10:38.543Z,18.50
2023-08-08T16:12:41.508Z,18.40
2023-08-08T16:14:45.766Z,18.40
2023-08-08T16:16:48.760Z,18.50
2023-08-08T16:18:51.663Z,18.60
2023-08-08T16:20:54.560Z,18.60
2023-08-08T16:22:57.449Z,18.60
2023-08-08T16:25:00.351Z,18.60
2023-08-08T16:27:03.646Z,18.40
2023-08-08T16:29:07.204Z,18.30
2023-08-08T16:31:11.777Z,18.10
2023-08-08T16:33:17.441Z,18.10
2023-08-08T16:35:20.523Z,18.10
2023-08-08T16:37:23.417Z,18.10
2023-08-08T16:39:26.360Z,18.00
2023-08-08T16:41:29.281Z,18.00
2023-08-08T16:43:33.167Z,18.00
2023-08-08T16:45:35.055Z,17.90
2023-08-08T16:47:39.340Z,17.90
2023-08-08T16:49:42.250Z,17.80
2023-08-08T16:51:45.170Z,17.70
2023-08-08T16:53:48.521Z,17.50
2023-08-08T16:55:51.394Z,17.20
2023-08-08T16:57:54.277Z,17.00
2023-08-08T16:59:57.356Z,17.00
2023-08-08T17:02:00.555Z,17.00
2023-08-08T17:04:05.332Z,16.90
2023-08-08T17:06:09.530Z,17.10
2023-08-08T17:08:13.769Z,17.00
2023-08-08T17:10:16.688Z,17.10
2023-08-08T17:12:19.579Z,17.00
2023-08-08T17:14:23.616Z,16.90
2023-08-08T17:16:26.664Z,16.90
2023-08-08T17:18:29.581Z,16.80
2023-08-08T17:20:33.855Z,16.70
2023-08-08T17:22:37.366Z,16.70
2023-08-08T17:24:40.991Z,16.60
2023-08-08T17:26:44.938Z,16.60
2023-08-08T17:28:50.291Z,16.60
2023-08-08T17:30:53.221Z,16.50
2023-08-08T17:32:56.125Z,16.40
2023-08-08T17:34:59.089Z,16.40
2023-08-08T17:37:03.329Z,16.30
2023-08-08T17:39:07.669Z,16.30
2023-08-08T17:41:10.542Z,16.30
2023-08-08T17:43:14.148Z,16.20
2023-08-08T17:45:17.171Z,16.20
2023-08-08T17:47:20.104Z,16.10
2023-08-08T17:49:24.568Z,16.10
2023-08-08T17:51:27.734Z,16.10
2023-08-08T17:53:31.996Z,16.10
2023-08-08T17:55:34.923Z,16.00
2023-08-08T17:57:36.859Z,16.00
2023-08-08T17:59:39.748Z,15.90
2023-08-08T18:01:44.469Z,15.80
2023-08-08T18:03:47.441Z,15.80
2023-08-08T18:05:50.340Z,15.70
2023-08-08T18:07:53.235Z,15.70
2023-08-08T18:09:57.494Z,15.60
2023-08-08T18:12:00.787Z,15.60
2023-08-08T18:14:03.958Z,15.60
2023-08-08T18:16:07.056Z,15.60
2023-08-08T18:18:09.989Z,15.60
2023-08-08T18:20:14.121Z,15.50
2023-08-08T18:22:17.016Z,15.60
2023-08-08T18:24:18.961Z,15.50
2023-08-08T18:26:24.726Z,15.50
2023-08-08T18:28:27.615Z,15.50
2023-08-08T18:30:30.524Z,15.50
2023-08-08T18:32:33.439Z,15.50
2023-08-08T18:34:36.399Z,15.50
2023-08-08T18:36:39.439Z,15.50
2023-08-08T18:38:43.692Z,15.50
2023-08-08T18:40:46.615Z,15.50
2023-08-08T18:42:50.950Z,15.40
2023-08-08T18:44:53.844Z,15.40
2023-08-08T18:46:56.706Z,15.40
2023-08-08T18:48:59.994Z,15.40
2023-08-08T18:51:02.903Z,15.30
2023-08-08T18:53:07.139Z,15.20
2023-08-08T18:55:10.290Z,15.20
2023-08-08T18:57:13.173Z,15.10
2023-08-08T18:59:17.433Z,15.10
2023-08-08T19:01:20.353Z,15.10
2023-08-08T19:03:23.347Z,15.00
2023-08-08T19:05:26.511Z,15.00
2023-08-08T19:07:29.403Z,14.90
2023-08-08T19:09:32.526Z,14.90
2023-08-08T19:11:34.452Z,14.90
2023-08-08T19:13:37.476Z,14.80
2023-08-08T19:15:41.710Z,14.80
2023-08-08T19:17:54.045Z,14.70
2023-08-08T19:19:58.227Z,14.70
2023-08-08T19:22:01.311Z,14.70
2023-08-08T19:24:03.455Z,14.60
2023-08-08T19:26:07.218Z,14.60
2023-08-08T19:28:10.377Z,14.50
2023-08-08T19:30:14.426Z,14.50
2023-08-08T19:32:18.662Z,14.50
2023-08-08T19:34:22.681Z,14.50
2023-08-08T19:36:25.665Z,14.50
2023-08-08T19:38:28.568Z,14.40
2023-08-08T19:40:33.023Z,14.40
2023-08-08T19:42:35.899Z,14.40
2023-08-08T19:44:38.944Z,14.30
2023-08-08T19:46:41.830Z,14.30
2023-08-08T19:48:47.936Z,14.20
2023-08-08T19:50:50.832Z,14.20
2023-08-08T19:52:53.723Z,14.20
2023-08-08T19:54:55.652Z,14.20
2023-08-08T19:56:59.092Z,14.10
2023-08-08T19:59:02.136Z,14.10
2023-08-08T20:01:05.175Z,14.10
2023-08-08T20:03:08.282Z,14.00
2023-08-08T20:05:12.590Z,14.00
2023-08-08T20:07:15.502Z,14.00
2023-08-08T20:09:18.690Z,14.00
2023-08-08T20:11:21.579Z,14.00
2023-08-08T20:13:26.967Z,13.90
2023-08-08T20:15:29.920Z,13.90
2023-08-08T20:17:32.880Z,13.90
2023-08-08T20:19:36.032Z,13.90
2023-08-08T20:21:40.314Z,14.00
2023-08-08T20:23:43.264Z,14.00
2023-08-08T20:25:46.195Z,14.10
2023-08-08T20:27:49.271Z,14.10
2023-08-08T20:29:51.176Z,14.20
2023-08-08T20:31:54.193Z,14.20
2023-08-08T20:33:57.642Z,14.20
2023-08-08T20:36:00.555Z,14.20
2023-08-08T20:38:05.323Z,14.30
2023-08-08T20:40:09.190Z,14.30
2023-08-08T20:42:12.460Z,14.20
2023-08-08T20:44:15.603Z,14.30
2023-08-08T20:46:18.909Z,14.20
2023-08-08T20:48:21.804Z,14.30
2023-08-08T20:50:24.734Z,14.30
2023-08-08T20:52:27.648Z,14.30
2023-08-08T20:54:31.886Z,14.30
2023-08-08T20:56:34.854Z,14.40
2023-08-08T20:58:37.750Z,14.40
2023-08-08T21:00:40.639Z,14.40
2023-08-08T21:02:43.694Z,14.40
2023-08-08T21:04:46.678Z,14.40
2023-08-08T21:06:49.623Z,14.40
2023-08-08T21:08:52.558Z,14.40
2023-08-08T21:10:56.793Z,14.40
2023-08-08T21:12:59.723Z,14.40
2023-08-08T21:15:01.958Z,14.40
2023-08-08T21:17:05.386Z,14.40
2023-08-08T21:19:08.580Z,14.30
2023-08-08T21:21:11.448Z,14.40
2023-08-08T21:23:13.358Z,14.40
2023-08-08T21:25:16.250Z,14.40
2023-08-08T21:27:20.502Z,14.30
2023-08-08T21:29:23.413Z,14.30
2023-08-08T21:31:26.636Z,14.30
2023-08-08T21:33:29.562Z,14.20
2023-08-08T21:35:33.555Z,14.30
2023-08-08T21:37:35.520Z,14.20
2023-08-08T21:39:39.500Z,14.30
2023-08-08T21:41:42.387Z,14.30
2023-08-08T21:43:46.631Z,14.30
2023-08-08T21:45:49.581Z,14.30
2023-08-08T21:47:52.548Z,14.30
2023-08-08T21:49:55.498Z,14.30
2023-08-08T21:51:58.362Z,14.30
2023-08-08T21:54:01.252Z,14.40
2023-08-08T21:56:05.330Z,14.40
2023-08-08T21:58:08.230Z,14.40
2023-08-08T22:00:15.814Z,14.40
2023-08-08T22:02:18.944Z,14.40
2023-08-08T22:04:21.865Z,14.40
2023-08-08T22:06:24.817Z,14.40
2023-08-08T22:08:27.824Z,14.40
2023-08-08T22:10:34.652Z,14.40
2023-08-08T22:12:37.596Z,14.30
2023-08-08T22:14:40.543Z,14.40
2023-08-08T22:16:44.807Z,14.30
2023-08-08T22:18:47.720Z,14.30
2023-08-08T22:20:50.607Z,14.30
2023-08-08T22:22:54.581Z,14.20
2023-08-08T22:24:58.839Z,14.20
2023-08-08T22:27:01.307Z,14.20
2023-08-08T22:29:04.712Z,14.10
2023-08-08T22:31:07.392Z,14.10
2023-08-08T22:33:11.787Z,14.20
2023-08-08T22:35:14.666Z,14.10
2023-08-08T22:37:17.731Z,14.10
2023-08-08T22:39:20.695Z,14.20
2023-08-08T22:41:23.589Z,14.10
2023-08-08T22:43:26.502Z,14.10
2023-08-08T22:45:29.691Z,14.10
2023-08-08T22:47:32.645Z,14.10
2023-08-08T22:49:36.895Z,14.10
2023-08-08T22:51:39.803Z,14.10
2023-08-08T22:53:43.675Z,14.10
2023-08-08T22:55:46.647Z,14.10
2023-08-08T22:57:48.539Z,14.10
2023-08-08T22:59:51.485Z,14.10
2023-08-08T23:01:54.406Z,14.00
2023-08-08T23:03:57.403Z,14.00
2023-08-08T23:06:01.690Z,14.00
2023-08-08T23:08:05.051Z,14.00
2023-08-08T23:10:08.944Z,14.00
2023-08-08T23:12:11.845Z,14.00
2023-08-08T23:14:14.833Z,14.00
2023-08-08T23:16:17.807Z,14.00
2023-08-08T23:18:20.744Z,14.00
2023-08-08T23:20:23.765Z,14.00
2023-08-08T23:22:27.042Z,14.00
2023-08-08T23:24:29.989Z,14.00
2023-08-08T23:26:32.881Z,14.00
2023-08-08T23:28:35.865Z,13.90
2023-08-08T23:30:38.981Z,13.90
2023-08-08T23:32:46.674Z,13.90
2023-08-08T23:34:56.293Z,13.90
2023-08-08T23:36:59.196Z,13.90
2023-08-08T23:39:05.450Z,13.80
2023-08-08T23:41:08.387Z,13.80
2023-08-08T23:43:11.290Z,13.80
2023-08-08T23:45:15.840Z,13.80
2023-08-08T23:47:18.899Z,13.80
2023-08-08T23:49:21.853Z,13.80
2023-08-08T23:51:24.756Z,13.80
2023-08-08T23:53:27.698Z,13.80
2023-08-08T23:55:31.931Z,13.70
2023-08-08T23:57:34.829Z,13.70
2023-08-08T23:59:37.761Z,13.70
